sensor_id;sensor_type;location;lat;lon;timestamp;P1;durP1;ratioP1;P2;durP2;ratioP2
48403;SDS011;34202;52.536;6.042;2023-06-14T00:04:15;7.00;;;2.60;;
48403;SDS011;34202;52.536;6.042;2023-06-14T00:09:18;9.70;;;1.80;;
48403;SDS011;34202;52.536;6.042;2023-06-14T00:14:18;5.70;;;2.00;;
48403;SDS011;34202;52.536;6.042;2023-06-14T00:19:19;4.80;;;2.20;;
48403;SDS011;34202;52.536;6.042;2023-06-14T00:24:19;5.60;;;1.60;;
48403;SDS011;34202;52.536;6.042;2023-06-14T00:29:20;5.60;;;2.70;;
48403;SDS011;34202;52.536;6.042;2023-06-14T00:34:20;5.10;;;2.10;;
48403;SDS011;34202;52.536;6.042;2023-06-14T00:39:20;8.30;;;1.70;;
48403;SDS011;34202;52.536;6.042;2023-06-14T00:44:21;4.60;;;2.70;;
48403;SDS011;34202;52.536;6.042;2023-06-14T00:49:21;8.00;;;2.30;;
48403;SDS011;34202;52.536;6.042;2023-06-14T00:54:22;6.10;;;1.90;;
48403;SDS011;34202;52.536;6.042;2023-06-14T00:59:22;3.30;;;2.80;;
48403;SDS011;34202;52.536;6.042;2023-06-14T01:04:23;6.70;;;2.90;;
48403;SDS011;34202;52.536;6.042;2023-06-14T01:09:27;8.30;;;2.00;;
48403;SDS011;34202;52.536;6.042;2023-06-14T01:14:37;5.40;;;2.30;;
48403;SDS011;34202;52.536;6.042;2023-06-14T01:19:38;3.30;;;1.60;;
48403;SDS011;34202;52.536;6.042;2023-06-14T01:24:39;4.20;;;2.00;;
48403;SDS011;34202;52.536;6.042;2023-06-14T01:29:39;6.90;;;3.30;;
48403;SDS011;34202;52.536;6.042;2023-06-14T01:34:45;5.40;;;1.90;;
48403;SDS011;34202;52.536;6.042;2023-06-14T01:39:46;5.60;;;1.90;;
48403;SDS011;34202;52.536;6.042;2023-06-14T01:44:49;4.70;;;4.20;;
48403;SDS011;34202;52.536;6.042;2023-06-14T01:49:51;4.80;;;2.10;;
48403;SDS011;34202;52.536;6.042;2023-06-14T01:54:52;7.20;;;2.40;;
48403;SDS011;34202;52.536;6.042;2023-06-14T01:59:52;11.80;;;2.60;;
48403;SDS011;34202;52.536;6.042;2023-06-14T02:04:52;3.70;;;2.00;;
48403;SDS011;34202;52.536;6.042;2023-06-14T02:09:57;4.30;;;2.10;;
48403;SDS011;34202;52.536;6.042;2023-06-14T02:14:57;7.40;;;1.60;;
48403;SDS011;34202;52.536;6.042;2023-06-14T02:19:58;6.60;;;2.10;;
48403;SDS011;34202;52.536;6.042;2023-06-14T02:24:58;8.00;;;2.20;;
48403;SDS011;34202;52.536;6.042;2023-06-14T02:29:59;3.00;;;2.10;;
48403;SDS011;34202;52.536;6.042;2023-06-14T02:35:01;7.00;;;2.10;;
48403;SDS011;34202;52.536;6.042;2023-06-14T02:40:02;7.90;;;2.40;;
48403;SDS011;34202;52.536;6.042;2023-06-14T02:45:03;7.00;;;2.60;;
48403;SDS011;34202;52.536;6.042;2023-06-14T02:50:04;6.50;;;2.20;;
48403;SDS011;34202;52.536;6.042;2023-06-14T02:55:05;3.20;;;2.40;;
48403;SDS011;34202;52.536;6.042;2023-06-14T03:00:06;4.40;;;2.10;;
48403;SDS011;34202;52.536;6.042;2023-06-14T03:05:10;6.50;;;2.70;;
48403;SDS011;34202;52.536;6.042;2023-06-14T03:10:10;4.10;;;2.00;;
48403;SDS011;34202;52.536;6.042;2023-06-14T03:15:13;8.50;;;2.10;;
48403;SDS011;34202;52.536;6.042;2023-06-14T03:20:13;4.90;;;2.20;;
48403;SDS011;34202;52.536;6.042;2023-06-14T03:25:14;6.00;;;2.30;;
48403;SDS011;34202;52.536;6.042;2023-06-14T03:30:15;3.60;;;1.70;;
48403;SDS011;34202;52.536;6.042;2023-06-14T03:35:15;8.20;;;1.80;;
48403;SDS011;34202;52.536;6.042;2023-06-14T03:40:18;5.80;;;2.20;;
48403;SDS011;34202;52.536;6.042;2023-06-14T03:45:19;3.60;;;2.10;;
48403;SDS011;34202;52.536;6.042;2023-06-14T03:50:20;3.80;;;2.30;;
48403;SDS011;34202;52.536;6.042;2023-06-14T03:55:21;6.50;;;2.60;;
48403;SDS011;34202;52.536;6.042;2023-06-14T04:00:21;9.70;;;4.10;;
48403;SDS011;34202;52.536;6.042;2023-06-14T04:05:21;8.90;;;1.90;;
48403;SDS011;34202;52.536;6.042;2023-06-14T04:10:26;5.10;;;2.30;;
48403;SDS011;34202;52.536;6.042;2023-06-14T04:15:26;3.80;;;1.90;;
48403;SDS011;34202;52.536;6.042;2023-06-14T04:20:30;9.10;;;2.50;;
48403;SDS011;34202;52.536;6.042;2023-06-14T04:25:30;5.00;;;2.50;;
48403;SDS011;34202;52.536;6.042;2023-06-14T04:30:32;4.40;;;2.60;;
48403;SDS011;34202;52.536;6.042;2023-06-14T04:35:32;9.00;;;2.70;;
48403;SDS011;34202;52.536;6.042;2023-06-14T04:40:35;2.20;;;2.00;;
48403;SDS011;34202;52.536;6.042;2023-06-14T04:45:42;2.60;;;1.80;;
48403;SDS011;34202;52.536;6.042;2023-06-14T04:50:44;7.20;;;2.70;;
48403;SDS011;34202;52.536;6.042;2023-06-14T04:55:45;5.70;;;2.50;;
48403;SDS011;34202;52.536;6.042;2023-06-14T05:00:46;3.40;;;2.10;;
48403;SDS011;34202;52.536;6.042;2023-06-14T05:05:46;5.10;;;2.80;;
48403;SDS011;34202;52.536;6.042;2023-06-14T05:10:47;6.00;;;2.70;;
48403;SDS011;34202;52.536;6.042;2023-06-14T05:15:47;8.10;;;2.60;;
48403;SDS011;34202;52.536;6.042;2023-06-14T05:20:48;7.10;;;2.70;;
48403;SDS011;34202;52.536;6.042;2023-06-14T05:25:49;6.10;;;2.30;;
48403;SDS011;34202;52.536;6.042;2023-06-14T05:30:49;6.50;;;2.20;;
48403;SDS011;34202;52.536;6.042;2023-06-14T05:35:51;6.10;;;2.70;;
48403;SDS011;34202;52.536;6.042;2023-06-14T05:40:51;7.70;;;2.60;;
48403;SDS011;34202;52.536;6.042;2023-06-14T05:45:53;3.00;;;2.00;;
48403;SDS011;34202;52.536;6.042;2023-06-14T05:50:53;9.40;;;2.70;;
48403;SDS011;34202;52.536;6.042;2023-06-14T05:55:54;7.70;;;2.80;;
48403;SDS011;34202;52.536;6.042;2023-06-14T06:00:55;4.80;;;2.50;;
48403;SDS011;34202;52.536;6.042;2023-06-14T06:05:55;2.90;;;2.40;;
48403;SDS011;34202;52.536;6.042;2023-06-14T06:10:55;3.70;;;2.30;;
48403;SDS011;34202;52.536;6.042;2023-06-14T06:15:56;6.00;;;2.90;;
48403;SDS011;34202;52.536;6.042;2023-06-14T06:20:57;6.20;;;2.60;;
48403;SDS011;34202;52.536;6.042;2023-06-14T06:25:57;3.10;;;2.60;;
48403;SDS011;34202;52.536;6.042;2023-06-14T06:30:58;4.70;;;2.30;;
48403;SDS011;34202;52.536;6.042;2023-06-14T06:35:58;2.40;;;2.10;;
48403;SDS011;34202;52.536;6.042;2023-06-14T06:40:58;3.90;;;2.20;;
48403;SDS011;34202;52.536;6.042;2023-06-14T06:45:59;5.40;;;2.30;;
48403;SDS011;34202;52.536;6.042;2023-06-14T06:50:59;4.60;;;2.30;;
48403;SDS011;34202;52.536;6.042;2023-06-14T06:55:59;2.70;;;1.60;;
48403;SDS011;34202;52.536;6.042;2023-06-14T07:01:00;5.70;;;2.00;;
48403;SDS011;34202;52.536;6.042;2023-06-14T07:06:00;3.60;;;1.60;;
48403;SDS011;34202;52.536;6.042;2023-06-14T07:11:01;2.70;;;1.40;;
48403;SDS011;34202;52.536;6.042;2023-06-14T07:16:03;9.00;;;1.70;;
48403;SDS011;34202;52.536;6.042;2023-06-14T07:21:04;8.70;;;1.80;;
48403;SDS011;34202;52.536;6.042;2023-06-14T07:26:05;5.10;;;1.70;;
48403;SDS011;34202;52.536;6.042;2023-06-14T07:31:06;2.30;;;1.50;;
48403;SDS011;34202;52.536;6.042;2023-06-14T07:36:06;2.00;;;1.30;;
48403;SDS011;34202;52.536;6.042;2023-06-14T07:41:07;3.60;;;1.50;;
48403;SDS011;34202;52.536;6.042;2023-06-14T07:46:08;2.30;;;1.60;;
48403;SDS011;34202;52.536;6.042;2023-06-14T07:51:09;1.70;;;1.30;;
48403;SDS011;34202;52.536;6.042;2023-06-14T07:56:09;2.70;;;1.80;;
48403;SDS011;34202;52.536;6.042;2023-06-14T08:01:10;1.80;;;1.60;;
48403;SDS011;34202;52.536;6.042;2023-06-14T08:06:11;5.30;;;1.70;;
48403;SDS011;34202;52.536;6.042;2023-06-14T08:11:12;5.40;;;1.50;;
48403;SDS011;34202;52.536;6.042;2023-06-14T08:16:12;5.60;;;2.00;;
48403;SDS011;34202;52.536;6.042;2023-06-14T08:21:12;3.50;;;1.50;;
48403;SDS011;34202;52.536;6.042;2023-06-14T08:26:14;2.10;;;1.30;;
48403;SDS011;34202;52.536;6.042;2023-06-14T08:31:15;5.20;;;1.90;;
48403;SDS011;34202;52.536;6.042;2023-06-14T08:36:15;1.70;;;1.30;;
48403;SDS011;34202;52.536;6.042;2023-06-14T08:41:25;2.20;;;1.70;;
48403;SDS011;34202;52.536;6.042;2023-06-14T08:46:26;6.20;;;1.70;;
48403;SDS011;34202;52.536;6.042;2023-06-14T08:51:27;1.90;;;1.60;;
48403;SDS011;34202;52.536;6.042;2023-06-14T08:56:34;10.20;;;1.60;;
48403;SDS011;34202;52.536;6.042;2023-06-14T09:01:37;5.40;;;1.40;;
48403;SDS011;34202;52.536;6.042;2023-06-14T09:06:38;5.70;;;1.50;;
48403;SDS011;34202;52.536;6.042;2023-06-14T09:11:41;1.50;;;1.30;;
48403;SDS011;34202;52.536;6.042;2023-06-14T09:16:42;5.30;;;1.70;;
48403;SDS011;34202;52.536;6.042;2023-06-14T09:21:42;1.60;;;1.40;;
48403;SDS011;34202;52.536;6.042;2023-06-14T09:26:47;3.40;;;1.00;;
48403;SDS011;34202;52.536;6.042;2023-06-14T09:31:48;4.40;;;1.30;;
48403;SDS011;34202;52.536;6.042;2023-06-14T09:36:48;1.10;;;1.00;;
48403;SDS011;34202;52.536;6.042;2023-06-14T09:41:49;2.50;;;1.40;;
48403;SDS011;34202;52.536;6.042;2023-06-14T09:46:49;1.40;;;1.30;;
48403;SDS011;34202;52.536;6.042;2023-06-14T09:51:51;5.70;;;1.00;;
48403;SDS011;34202;52.536;6.042;2023-06-14T09:56:54;1.10;;;1.00;;
48403;SDS011;34202;52.536;6.042;2023-06-14T10:01:55;4.80;;;1.20;;
48403;SDS011;34202;52.536;6.042;2023-06-14T10:06:59;2.70;;;1.20;;
48403;SDS011;34202;52.536;6.042;2023-06-14T10:12:01;5.00;;;1.40;;
48403;SDS011;34202;52.536;6.042;2023-06-14T10:17:06;2.00;;;1.20;;
48403;SDS011;34202;52.536;6.042;2023-06-14T10:22:14;1.90;;;1.10;;
48403;SDS011;34202;52.536;6.042;2023-06-14T10:27:20;1.90;;;1.10;;
48403;SDS011;34202;52.536;6.042;2023-06-14T10:32:24;3.60;;;1.10;;
48403;SDS011;34202;52.536;6.042;2023-06-14T10:37:25;1.80;;;1.60;;
48403;SDS011;34202;52.536;6.042;2023-06-14T10:42:32;3.80;;;0.90;;
48403;SDS011;34202;52.536;6.042;2023-06-14T10:47:34;3.70;;;1.60;;
48403;SDS011;34202;52.536;6.042;2023-06-14T10:52:38;6.30;;;1.10;;
48403;SDS011;34202;52.536;6.042;2023-06-14T10:57:44;2.00;;;1.10;;
48403;SDS011;34202;52.536;6.042;2023-06-14T11:07:55;2.50;;;1.20;;
48403;SDS011;34202;52.536;6.042;2023-06-14T11:13:15;1.60;;;1.20;;
48403;SDS011;34202;52.536;6.042;2023-06-14T11:18:17;5.00;;;1.10;;
48403;SDS011;34202;52.536;6.042;2023-06-14T11:23:17;1.40;;;1.20;;
48403;SDS011;34202;52.536;6.042;2023-06-14T11:28:18;5.10;;;1.30;;
48403;SDS011;34202;52.536;6.042;2023-06-14T11:33:21;4.00;;;2.20;;
48403;SDS011;34202;52.536;6.042;2023-06-14T11:38:22;1.30;;;1.00;;
48403;SDS011;34202;52.536;6.042;2023-06-14T11:43:23;5.60;;;1.50;;
48403;SDS011;34202;52.536;6.042;2023-06-14T11:48:37;3.00;;;2.10;;
48403;SDS011;34202;52.536;6.042;2023-06-14T11:53:39;2.00;;;1.60;;
48403;SDS011;34202;52.536;6.042;2023-06-14T11:58:42;1.70;;;1.00;;
48403;SDS011;34202;52.536;6.042;2023-06-14T12:03:47;2.60;;;1.30;;
48403;SDS011;34202;52.536;6.042;2023-06-14T12:08:48;1.90;;;1.00;;
48403;SDS011;34202;52.536;6.042;2023-06-14T12:13:50;2.70;;;1.20;;
48403;SDS011;34202;52.536;6.042;2023-06-14T12:18:50;3.40;;;1.20;;
48403;SDS011;34202;52.536;6.042;2023-06-14T12:23:53;2.60;;;1.10;;
48403;SDS011;34202;52.536;6.042;2023-06-14T12:28:54;2.60;;;1.10;;
48403;SDS011;34202;52.536;6.042;2023-06-14T12:33:54;6.80;;;1.20;;
48403;SDS011;34202;52.536;6.042;2023-06-14T12:38:54;1.50;;;1.30;;
48403;SDS011;34202;52.536;6.042;2023-06-14T12:43:55;3.30;;;0.80;;
48403;SDS011;34202;52.536;6.042;2023-06-14T12:48:58;3.40;;;1.10;;
48403;SDS011;34202;52.536;6.042;2023-06-14T12:53:58;1.10;;;1.00;;
48403;SDS011;34202;52.536;6.042;2023-06-14T12:58:59;1.80;;;1.00;;
48403;SDS011;34202;52.536;6.042;2023-06-14T13:03:59;2.80;;;1.20;;
48403;SDS011;34202;52.536;6.042;2023-06-14T13:09:00;3.90;;;1.10;;
48403;SDS011;34202;52.536;6.042;2023-06-14T13:14:01;7.30;;;1.10;;
48403;SDS011;34202;52.536;6.042;2023-06-14T13:19:02;3.90;;;1.30;;
48403;SDS011;34202;52.536;6.042;2023-06-14T13:24:02;2.20;;;1.00;;
48403;SDS011;34202;52.536;6.042;2023-06-14T13:29:03;2.10;;;1.30;;
48403;SDS011;34202;52.536;6.042;2023-06-14T13:34:03;1.30;;;1.00;;
48403;SDS011;34202;52.536;6.042;2023-06-14T13:39:04;2.20;;;1.10;;
48403;SDS011;34202;52.536;6.042;2023-06-14T13:44:05;1.40;;;1.00;;
48403;SDS011;34202;52.536;6.042;2023-06-14T13:49:05;2.30;;;1.10;;
48403;SDS011;34202;52.536;6.042;2023-06-14T13:54:06;1.80;;;1.10;;
48403;SDS011;34202;52.536;6.042;2023-06-14T13:59:06;4.10;;;1.80;;
48403;SDS011;34202;52.536;6.042;2023-06-14T14:04:07;2.50;;;0.90;;
48403;SDS011;34202;52.536;6.042;2023-06-14T14:09:07;6.00;;;1.40;;
48403;SDS011;34202;52.536;6.042;2023-06-14T14:14:08;2.40;;;1.30;;
48403;SDS011;34202;52.536;6.042;2023-06-14T14:19:10;1.60;;;1.50;;
48403;SDS011;34202;52.536;6.042;2023-06-14T14:24:10;2.50;;;1.40;;
48403;SDS011;34202;52.536;6.042;2023-06-14T14:29:11;3.40;;;1.50;;
48403;SDS011;34202;52.536;6.042;2023-06-14T14:34:11;3.80;;;1.20;;
48403;SDS011;34202;52.536;6.042;2023-06-14T14:39:12;3.00;;;1.10;;
48403;SDS011;34202;52.536;6.042;2023-06-14T14:44:12;3.20;;;1.00;;
48403;SDS011;34202;52.536;6.042;2023-06-14T14:49:12;1.20;;;0.90;;
48403;SDS011;34202;52.536;6.042;2023-06-14T14:54:13;1.30;;;0.70;;
48403;SDS011;34202;52.536;6.042;2023-06-14T14:59:13;1.70;;;1.10;;
48403;SDS011;34202;52.536;6.042;2023-06-14T15:04:14;2.70;;;1.20;;
48403;SDS011;34202;52.536;6.042;2023-06-14T15:09:14;2.30;;;1.20;;
48403;SDS011;34202;52.536;6.042;2023-06-14T15:14:15;4.10;;;1.00;;
48403;SDS011;34202;52.536;6.042;2023-06-14T15:19:17;4.60;;;1.60;;
48403;SDS011;34202;52.536;6.042;2023-06-14T15:24:17;2.30;;;1.10;;
48403;SDS011;34202;52.536;6.042;2023-06-14T15:29:18;1.80;;;0.80;;
48403;SDS011;34202;52.536;6.042;2023-06-14T15:34:18;4.10;;;1.40;;
48403;SDS011;34202;52.536;6.042;2023-06-14T15:39:19;1.00;;;0.90;;
48403;SDS011;34202;52.536;6.042;2023-06-14T15:44:19;1.60;;;0.80;;
48403;SDS011;34202;52.536;6.042;2023-06-14T15:49:20;3.10;;;1.10;;
48403;SDS011;34202;52.536;6.042;2023-06-14T15:54:20;2.10;;;1.00;;
48403;SDS011;34202;52.536;6.042;2023-06-14T15:59:21;1.20;;;0.90;;
48403;SDS011;34202;52.536;6.042;2023-06-14T16:04:21;1.70;;;0.80;;
48403;SDS011;34202;52.536;6.042;2023-06-14T16:09:21;0.80;;;0.70;;
48403;SDS011;34202;52.536;6.042;2023-06-14T16:14:22;3.30;;;1.00;;
48403;SDS011;34202;52.536;6.042;2023-06-14T16:19:22;1.40;;;1.00;;
48403;SDS011;34202;52.536;6.042;2023-06-14T16:24:23;2.00;;;0.90;;
48403;SDS011;34202;52.536;6.042;2023-06-14T16:29:24;2.70;;;1.00;;
48403;SDS011;34202;52.536;6.042;2023-06-14T16:34:24;5.30;;;1.10;;
48403;SDS011;34202;52.536;6.042;2023-06-14T16:39:25;1.80;;;0.70;;
48403;SDS011;34202;52.536;6.042;2023-06-14T16:44:25;1.70;;;1.10;;
48403;SDS011;34202;52.536;6.042;2023-06-14T16:49:26;3.80;;;1.10;;
48403;SDS011;34202;52.536;6.042;2023-06-14T16:54:26;1.00;;;0.80;;
48403;SDS011;34202;52.536;6.042;2023-06-14T16:59:27;7.90;;;1.30;;
48403;SDS011;34202;52.536;6.042;2023-06-14T17:04:27;1.50;;;1.40;;
48403;SDS011;34202;52.536;6.042;2023-06-14T17:09:27;3.60;;;1.30;;
48403;SDS011;34202;52.536;6.042;2023-06-14T17:14:28;4.80;;;1.30;;
48403;SDS011;34202;52.536;6.042;2023-06-14T17:19:28;4.50;;;1.20;;
48403;SDS011;34202;52.536;6.042;2023-06-14T17:24:28;2.80;;;1.20;;
48403;SDS011;34202;52.536;6.042;2023-06-14T17:29:29;2.00;;;1.30;;
48403;SDS011;34202;52.536;6.042;2023-06-14T17:34:29;1.90;;;1.20;;
48403;SDS011;34202;52.536;6.042;2023-06-14T17:39:30;1.30;;;1.10;;
48403;SDS011;34202;52.536;6.042;2023-06-14T17:44:30;2.00;;;1.10;;
48403;SDS011;34202;52.536;6.042;2023-06-14T17:49:30;2.50;;;1.20;;
48403;SDS011;34202;52.536;6.042;2023-06-14T17:54:32;2.90;;;1.10;;
48403;SDS011;34202;52.536;6.042;2023-06-14T17:59:32;3.30;;;1.00;;
48403;SDS011;34202;52.536;6.042;2023-06-14T18:04:33;2.90;;;1.20;;
48403;SDS011;34202;52.536;6.042;2023-06-14T18:09:34;1.40;;;1.00;;
48403;SDS011;34202;52.536;6.042;2023-06-14T18:14:34;2.00;;;1.20;;
48403;SDS011;34202;52.536;6.042;2023-06-14T18:19:35;1.20;;;1.10;;
48403;SDS011;34202;52.536;6.042;2023-06-14T18:24:36;5.20;;;1.90;;
48403;SDS011;34202;52.536;6.042;2023-06-14T18:29:37;2.00;;;1.10;;
48403;SDS011;34202;52.536;6.042;2023-06-14T18:34:37;7.50;;;1.50;;
48403;SDS011;34202;52.536;6.042;2023-06-14T18:39:38;3.00;;;1.00;;
48403;SDS011;34202;52.536;6.042;2023-06-14T18:44:38;3.00;;;1.70;;
48403;SDS011;34202;52.536;6.042;2023-06-14T18:49:39;1.60;;;1.30;;
48403;SDS011;34202;52.536;6.042;2023-06-14T18:54:39;3.30;;;1.10;;
48403;SDS011;34202;52.536;6.042;2023-06-14T18:59:40;2.90;;;1.30;;
48403;SDS011;34202;52.536;6.042;2023-06-14T19:04:40;5.90;;;1.20;;
48403;SDS011;34202;52.536;6.042;2023-06-14T19:09:40;3.90;;;1.40;;
48403;SDS011;34202;52.536;6.042;2023-06-14T19:14:41;3.00;;;1.20;;
48403;SDS011;34202;52.536;6.042;2023-06-14T19:19:41;7.30;;;1.40;;
48403;SDS011;34202;52.536;6.042;2023-06-14T19:24:43;1.30;;;1.20;;
48403;SDS011;34202;52.536;6.042;2023-06-14T19:29:43;6.00;;;1.40;;
48403;SDS011;34202;52.536;6.042;2023-06-14T19:34:44;2.00;;;1.20;;
48403;SDS011;34202;52.536;6.042;2023-06-14T19:39:45;2.30;;;1.40;;
48403;SDS011;34202;52.536;6.042;2023-06-14T19:44:45;1.80;;;1.50;;
48403;SDS011;34202;52.536;6.042;2023-06-14T19:49:46;3.90;;;1.50;;
48403;SDS011;34202;52.536;6.042;2023-06-14T19:54:46;2.20;;;1.20;;
48403;SDS011;34202;52.536;6.042;2023-06-14T19:59:47;2.70;;;1.30;;
48403;SDS011;34202;52.536;6.042;2023-06-14T20:04:47;6.00;;;2.70;;
48403;SDS011;34202;52.536;6.042;2023-06-14T20:09:48;4.10;;;1.90;;
48403;SDS011;34202;52.536;6.042;2023-06-14T20:14:48;4.30;;;1.50;;
48403;SDS011;34202;52.536;6.042;2023-06-14T20:19:49;5.50;;;1.70;;
48403;SDS011;34202;52.536;6.042;2023-06-14T20:24:50;2.60;;;1.90;;
48403;SDS011;34202;52.536;6.042;2023-06-14T20:29:50;2.90;;;1.60;;
48403;SDS011;34202;52.536;6.042;2023-06-14T20:34:53;6.70;;;2.50;;
48403;SDS011;34202;52.536;6.042;2023-06-14T20:39:54;3.40;;;1.50;;
48403;SDS011;34202;52.536;6.042;2023-06-14T20:45:03;8.60;;;2.80;;
48403;SDS011;34202;52.536;6.042;2023-06-14T20:50:04;3.90;;;1.80;;
48403;SDS011;34202;52.536;6.042;2023-06-14T20:55:05;7.00;;;2.60;;
48403;SDS011;34202;52.536;6.042;2023-06-14T21:00:08;6.90;;;3.00;;
48403;SDS011;34202;52.536;6.042;2023-06-14T21:05:11;10.60;;;2.50;;
48403;SDS011;34202;52.536;6.042;2023-06-14T21:10:12;3.50;;;2.30;;
48403;SDS011;34202;52.536;6.042;2023-06-14T21:15:12;2.80;;;2.50;;
48403;SDS011;34202;52.536;6.042;2023-06-14T21:20:13;5.10;;;2.70;;
48403;SDS011;34202;52.536;6.042;2023-06-14T21:25:13;5.70;;;2.60;;
48403;SDS011;34202;52.536;6.042;2023-06-14T21:30:15;9.00;;;2.10;;
48403;SDS011;34202;52.536;6.042;2023-06-14T21:35:18;10.00;;;2.20;;
48403;SDS011;34202;52.536;6.042;2023-06-14T21:40:19;4.40;;;2.40;;
48403;SDS011;34202;52.536;6.042;2023-06-14T21:45:19;6.40;;;2.60;;
48403;SDS011;34202;52.536;6.042;2023-06-14T21:50:20;3.20;;;2.40;;
48403;SDS011;34202;52.536;6.042;2023-06-14T21:55:20;9.70;;;2.90;;
48403;SDS011;34202;52.536;6.042;2023-06-14T22:00:23;5.30;;;2.70;;
48403;SDS011;34202;52.536;6.042;2023-06-14T22:05:24;8.30;;;2.50;;
48403;SDS011;34202;52.536;6.042;2023-06-14T22:10:25;4.10;;;2.20;;
48403;SDS011;34202;52.536;6.042;2023-06-14T22:15:26;4.30;;;2.30;;
48403;SDS011;34202;52.536;6.042;2023-06-14T22:20:27;7.80;;;2.60;;
48403;SDS011;34202;52.536;6.042;2023-06-14T22:25:29;5.20;;;2.50;;
48403;SDS011;34202;52.536;6.042;2023-06-14T22:30:30;5.50;;;3.10;;
48403;SDS011;34202;52.536;6.042;2023-06-14T22:35:32;4.50;;;2.00;;
48403;SDS011;34202;52.536;6.042;2023-06-14T22:40:33;3.00;;;2.10;;
48403;SDS011;34202;52.536;6.042;2023-06-14T22:45:33;6.40;;;2.50;;
48403;SDS011;34202;52.536;6.042;2023-06-14T22:50:36;4.50;;;3.10;;
48403;SDS011;34202;52.536;6.042;2023-06-14T22:55:37;3.20;;;2.40;;
48403;SDS011;34202;52.536;6.042;2023-06-14T23:00:37;4.60;;;2.20;;
48403;SDS011;34202;52.536;6.042;2023-06-14T23:05:38;5.70;;;2.50;;
48403;SDS011;34202;52.536;6.042;2023-06-14T23:10:41;5.40;;;2.10;;
48403;SDS011;34202;52.536;6.042;2023-06-14T23:15:42;5.80;;;2.40;;
48403;SDS011;34202;52.536;6.042;2023-06-14T23:20:42;4.20;;;2.40;;
48403;SDS011;34202;52.536;6.042;2023-06-14T23:25:43;5.20;;;2.30;;
48403;SDS011;34202;52.536;6.042;2023-06-14T23:30:43;5.00;;;2.70;;
48403;SDS011;34202;52.536;6.042;2023-06-14T23:35:45;3.50;;;2.30;;
48403;SDS011;34202;52.536;6.042;2023-06-14T23:40:47;8.90;;;2.00;;
48403;SDS011;34202;52.536;6.042;2023-06-14T23:45:49;5.00;;;2.00;;
48403;SDS011;34202;52.536;6.042;2023-06-14T23:50:53;6.60;;;2.30;;
48403;SDS011;34202;52.536;6.042;2023-06-14T23:55:54;3.60;;;2.30;;
